Gilman, Connecticut
Current Conditions -  °F | °C
As of 7:52 PM on Saturday 22 Nov 2014 (Local Time) from KIJD Reporting Station
Overcast Overcast  
Wind Chill: 38°   Ceiling: 3400
Heat Index: 42°   Visibility: 10mi
Dew Point: 19°   Wind: 7mph
Humidity: 40%   Direction: 220°SW
Pressure: 30.16"   Gusts: NA
Location:  41.56°N, 72.13°W
Report Text: KIJD 230052Z AUTO 22006KT 10SM OVC034 06/M07 A3016 RMK AO2 SLP216 T00561072
Loading
Personal Weather Stations






























Interactive Weather Map New forecast layout! Learn more

10-Day Weather Forecast

Advertisements
Track Severe Weather on mobile